Terminal Aerodrome Forecast
Issued by NWS Des Moines, IA

Home | Current Version | Previous Version | Text Only | Print | Product List | Glossary On
Versions: 1 2 3 4 5 6 7 8 9 10 11 12 13 14 15 16 17 18 19 20 21 22 23 24 25 26 27 28 29 30 31 32 33 34 35 36 37 38 39 40
000
FTUS43 KDMX 280520
TAFALO
TAF
KALO 280520Z 2806/2906 32007KT P6SM SCT040
     FM281300 33010KT P6SM BKN040
     FM281700 31009KT P6SM BKN035
      TEMPO 2819/2822 -SHRA
     FM290100 28005KT P6SM FEW040=

USA.gov is the U.S. government's official web portal to all federal, state and local government web resources and services.